createdAt,value
2022-09-20T00:00:48.379Z,99901.72
2022-09-20T00:03:16.778Z,99902.09
2022-09-20T00:05:45.322Z,99903.91
2022-09-20T00:08:14.427Z,99907.69
2022-09-20T00:10:41.312Z,99911.06
2022-09-20T00:13:10.796Z,99907.16
2022-09-20T00:15:42.603Z,99904.97
2022-09-20T00:18:09.681Z,99902.25
2022-09-20T00:20:36.098Z,99904.22
2022-09-20T00:23:02.487Z,99902.72
2022-09-20T00:25:29.756Z,99899.56
2022-09-20T00:27:56.184Z,99907.91
2022-09-20T00:30:22.559Z,99908.72
2022-09-20T00:32:49.073Z,99903.72
2022-09-20T00:35:16.554Z,99908.56
2022-09-20T00:37:43.858Z,99915.09
2022-09-20T00:40:14.434Z,99908.50
2022-09-20T00:42:41.313Z,99905.13
2022-09-20T00:45:12.090Z,99913.84
2022-09-20T00:48:12.086Z,99915.47
2022-09-20T00:50:44.559Z,99914.09
2022-09-20T00:53:18.663Z,99913.13
2022-09-20T00:55:59.286Z,99917.28
2022-09-20T00:58:27.534Z,99910.97
2022-09-20T01:00:56.425Z,99909.88
2022-09-20T01:03:27.701Z,99909.88
2022-09-20T01:05:55.804Z,99904.94
2022-09-20T01:08:25.180Z,99901.94
2022-09-20T01:10:52.738Z,99911.53
2022-09-20T01:13:19.100Z,99906.19
2022-09-20T01:15:49.319Z,99907.78
2022-09-20T01:18:17.180Z,99906.84
2022-09-20T01:20:46.160Z,99911.41
2022-09-20T01:23:17.246Z,99910.47
2022-09-20T01:26:05.083Z,99906.84
2022-09-20T01:28:32.792Z,99902.22
2022-09-20T01:31:25.008Z,99897.25
2022-09-20T01:34:33.735Z,99901.78
2022-09-20T01:37:19.209Z,99897.66
2022-09-20T01:40:02.769Z,99898.78
2022-09-20T01:42:36.396Z,99905.91
2022-09-20T01:45:23.681Z,99905.09
2022-09-20T01:48:10.209Z,99915.56
2022-09-20T01:51:03.694Z,99911.28
2022-09-20T01:53:49.202Z,99908.47
2022-09-20T01:56:49.837Z,99917.44
2022-09-20T01:59:32.004Z,99918.28
2022-09-20T02:02:28.382Z,99914.88
2022-09-20T02:05:08.508Z,99912.94
2022-09-20T02:07:56.314Z,99916.72
2022-09-20T02:10:47.425Z,99915.97
2022-09-20T02:13:38.999Z,99914.16
2022-09-20T02:16:28.056Z,99919.28
2022-09-20T02:19:22.191Z,99918.34
2022-09-20T02:22:00.940Z,99911.03
2022-09-20T02:24:33.434Z,99914.22
2022-09-20T02:27:15.197Z,99903.41
2022-09-20T02:29:53.476Z,99894.81
2022-09-20T02:32:46.376Z,99904.84
2022-09-20T02:35:26.034Z,99896.81
2022-09-20T02:38:20.896Z,99904.22
2022-09-20T02:41:06.182Z,99896.81
2022-09-20T02:43:48.733Z,99899.94
2022-09-20T02:46:41.977Z,99900.44
2022-09-20T02:49:08.409Z,99905.91
2022-09-20T02:51:46.657Z,99902.31
2022-09-20T02:54:39.591Z,99902.53
2022-09-20T02:57:26.948Z,99902.41
2022-09-20T03:00:01.719Z,99911.78
2022-09-20T03:02:30.798Z,99909.63
2022-09-20T03:05:14.183Z,99910.59
2022-09-20T03:08:06.683Z,99903.91
2022-09-20T03:10:49.377Z,99907.06
2022-09-20T03:13:50.776Z,99907.44
2022-09-20T03:16:43.390Z,99907.06
2022-09-20T03:19:33.837Z,99900.50
2022-09-20T03:22:30.528Z,99905.00
2022-09-20T03:25:34.568Z,99905.25
2022-09-20T03:28:21.391Z,99901.09
2022-09-20T03:31:25.760Z,99906.34
2022-09-20T03:34:30.463Z,99912.78
2022-09-20T03:36:59.761Z,99898.91
2022-09-20T03:39:53.561Z,99903.56
2022-09-20T03:42:24.920Z,99901.47
2022-09-20T03:45:06.968Z,99906.84
2022-09-20T03:47:45.514Z,99910.47
2022-09-20T03:50:18.850Z,99907.78
2022-09-20T03:53:12.777Z,99910.84
2022-09-20T03:55:42.161Z,99911.56
2022-09-20T03:58:39.759Z,99910.72
2022-09-20T04:01:41.703Z,99909.88
2022-09-20T04:04:36.084Z,99915.09
2022-09-20T04:07:29.989Z,99915.97
2022-09-20T04:09:56.529Z,99913.28
2022-09-20T04:12:48.016Z,99912.41
2022-09-20T04:15:26.974Z,99914.13
2022-09-20T04:18:11.691Z,99911.69
2022-09-20T04:20:57.264Z,99910.72
2022-09-20T04:23:29.856Z,99920.44
2022-09-20T04:26:01.003Z,99924.84
2022-09-20T04:28:34.661Z,99919.59
2022-09-20T04:31:14.502Z,99921.44
2022-09-20T04:33:45.108Z,99915.47
2022-09-20T04:36:29.645Z,99914.88
2022-09-20T04:39:20.876Z,99917.69
2022-09-20T04:42:18.001Z,99913.41
2022-09-20T04:45:05.266Z,99926.06
2022-09-20T04:47:43.864Z,99928.88
2022-09-20T04:50:25.342Z,99929.97
2022-09-20T04:53:29.479Z,99935.06
2022-09-20T04:56:21.727Z,99936.78
2022-09-20T04:59:06.965Z,99935.34
2022-09-20T05:02:11.019Z,99928.25
2022-09-20T05:05:06.909Z,99938.97
2022-09-20T05:08:00.980Z,99943.34
2022-09-20T05:10:46.390Z,99939.34
2022-09-20T05:13:38.692Z,99938.72
2022-09-20T05:16:08.146Z,99943.34
2022-09-20T05:18:45.746Z,99951.38
2022-09-20T05:21:18.522Z,99951.88
2022-09-20T05:24:12.601Z,99945.28
2022-09-20T05:27:13.852Z,99948.63
2022-09-20T05:30:06.482Z,99954.31
2022-09-20T05:32:53.327Z,99959.06
2022-09-20T05:36:04.701Z,99961.28
2022-09-20T05:38:51.908Z,99965.28
2022-09-20T05:41:42.582Z,99967.59
2022-09-20T05:44:43.116Z,99959.78
2022-09-20T05:47:18.364Z,99969.03
2022-09-20T05:50:20.385Z,99969.25
2022-09-20T05:52:59.240Z,99972.94
2022-09-20T05:55:34.629Z,99969.84
2022-09-20T05:58:06.698Z,99966.81
2022-09-20T06:00:42.452Z,99972.78
2022-09-20T06:03:18.043Z,99971.81
2022-09-20T06:06:03.233Z,99981.53
2022-09-20T06:08:39.036Z,99976.19
2022-09-20T06:11:05.504Z,99977.41
2022-09-20T06:14:05.781Z,99977.47
2022-09-20T06:17:02.982Z,99970.03
2022-09-20T06:19:50.227Z,99980.50
2022-09-20T06:22:36.897Z,99976.59
2022-09-20T06:25:09.786Z,99968.66
2022-09-20T06:27:51.357Z,99981.72
2022-09-20T06:30:35.341Z,99981.19
2022-09-20T06:33:25.049Z,99987.19
2022-09-20T06:36:31.369Z,99983.00
2022-09-20T06:39:36.162Z,99989.72
2022-09-20T06:42:02.662Z,99988.75
2022-09-20T06:44:29.414Z,99984.09
2022-09-20T06:46:55.856Z,99984.88
2022-09-20T06:49:23.989Z,99981.81
2022-09-20T06:51:50.731Z,99989.63
2022-09-20T06:54:19.568Z,99985.09
2022-09-20T06:56:47.140Z,99997.88
2022-09-20T06:59:15.147Z,99990.34
2022-09-20T07:01:42.463Z,99994.94
2022-09-20T07:04:12.313Z,99992.44
2022-09-20T07:06:38.828Z,99991.19
2022-09-20T07:09:05.722Z,99996.31
2022-09-20T07:11:33.981Z,99994.00
2022-09-20T07:14:01.019Z,99992.91
2022-09-20T07:16:27.401Z,99982.81
2022-09-20T07:18:56.643Z,99998.13
2022-09-20T07:21:23.626Z,99999.28
2022-09-20T07:23:51.165Z,99994.38
2022-09-20T07:26:24.161Z,99993.47
2022-09-20T07:28:51.116Z,99997.06
2022-09-20T07:31:19.671Z,99998.19
2022-09-20T07:33:46.712Z,99998.94
2022-09-20T07:36:13.824Z,99998.06
2022-09-20T07:38:41.970Z,99997.28
2022-09-20T07:41:09.643Z,99998.38
2022-09-20T07:43:36.664Z,99997.88
2022-09-20T07:46:03.406Z,100001.28
2022-09-20T07:48:32.200Z,100002.19
2022-09-20T07:51:05.734Z,100007.94
2022-09-20T07:53:35.177Z,99994.78
2022-09-20T07:56:13.584Z,100000.75
2022-09-20T07:58:40.849Z,99999.56
2022-09-20T08:01:10.025Z,100000.44
2022-09-20T08:03:36.983Z,99995.81
2022-09-20T08:06:12.048Z,100001.69
2022-09-20T08:08:43.402Z,99997.00
2022-09-20T08:11:19.111Z,100001.28
2022-09-20T08:14:06.923Z,100000.91
2022-09-20T08:16:43.072Z,99993.19
2022-09-20T08:19:14.964Z,99982.63
2022-09-20T08:21:42.698Z,99989.59
2022-09-20T08:24:09.119Z,99995.09
2022-09-20T08:26:36.473Z,99991.13
2022-09-20T08:29:05.648Z,99999.34
2022-09-20T08:31:36.680Z,99987.75
2022-09-20T08:34:06.371Z,99986.03
2022-09-20T08:36:36.718Z,99986.53
2022-09-20T08:42:10.993Z,99982.19
2022-09-20T08:44:59.987Z,99996.25
2022-09-20T08:47:35.668Z,99985.22
2022-09-20T08:50:10.039Z,99999.44
2022-09-20T08:52:40.607Z,100004.53
2022-09-20T08:55:27.872Z,99982.25
2022-09-20T08:57:57.175Z,99986.94
2022-09-20T09:00:29.326Z,99992.47
2022-09-20T09:02:59.084Z,99993.00
2022-09-20T09:05:38.905Z,99991.75
2022-09-20T09:08:21.234Z,99998.13
2022-09-20T09:10:57.483Z,99997.16
2022-09-20T09:13:48.354Z,99989.50
2022-09-20T09:16:23.185Z,99988.34
2022-09-20T09:18:51.709Z,99975.84
2022-09-20T09:21:27.110Z,99976.97
2022-09-20T09:24:03.065Z,99962.53
2022-09-20T09:26:36.878Z,99957.72
2022-09-20T09:29:22.815Z,99963.13
2022-09-20T09:31:51.793Z,99955.19
2022-09-20T09:34:30.522Z,99961.13
2022-09-20T09:36:58.302Z,99959.69
2022-09-20T09:39:33.151Z,99956.75
2022-09-20T09:42:00.955Z,99945.09
2022-09-20T09:44:29.698Z,99945.81
2022-09-20T09:46:57.401Z,99949.78
2022-09-20T09:49:35.864Z,99954.06
2022-09-20T09:52:02.254Z,99944.69
2022-09-20T09:54:50.472Z,99937.56
2022-09-20T09:57:22.438Z,99947.69
2022-09-20T10:00:13.368Z,99943.44
2022-09-20T10:03:00.989Z,99943.84
2022-09-20T10:05:30.539Z,99944.72
2022-09-20T10:07:59.896Z,99942.97
2022-09-20T10:10:33.420Z,99943.19
2022-09-20T10:13:06.028Z,99935.81
2022-09-20T10:15:47.046Z,99927.19
2022-09-20T10:18:22.577Z,99938.19
2022-09-20T10:21:14.745Z,99934.97
2022-09-20T10:24:13.297Z,99934.63
2022-09-20T10:26:58.140Z,99924.59
2022-09-20T10:29:30.473Z,99922.81
2022-09-20T10:32:05.947Z,99915.91
2022-09-20T10:34:53.880Z,99912.56
2022-09-20T10:37:27.437Z,99910.81
2022-09-20T10:40:15.913Z,99898.38
2022-09-20T10:43:08.355Z,99904.72
2022-09-20T10:46:03.760Z,99904.94
2022-09-20T10:48:30.100Z,99917.69
2022-09-20T10:51:28.849Z,99923.13
2022-09-20T10:54:09.300Z,99924.19
2022-09-20T10:56:39.436Z,99932.34
2022-09-20T10:59:23.808Z,99936.88
2022-09-20T11:01:56.413Z,99945.16
2022-09-20T11:05:00.615Z,99948.03
2022-09-20T11:07:36.188Z,99953.75
2022-09-20T11:10:14.975Z,99969.06
2022-09-20T11:12:50.785Z,99963.69
2022-09-20T11:15:37.833Z,99983.53
2022-09-20T11:18:07.938Z,99986.09
2022-09-20T11:20:44.079Z,99990.06
2022-09-20T11:23:17.245Z,99986.50
2022-09-20T11:25:51.764Z,99982.41
2022-09-20T11:28:36.660Z,99983.53
2022-09-20T11:31:30.944Z,99976.47
2022-09-20T11:34:26.433Z,99978.72
2022-09-20T11:37:01.479Z,99978.31
2022-09-20T11:39:39.929Z,99980.97
2022-09-20T11:42:13.009Z,99977.72
2022-09-20T11:44:41.299Z,99972.69
2022-09-20T11:47:53.912Z,99979.19
2022-09-20T11:50:34.665Z,99962.72
2022-09-20T11:53:26.939Z,99970.06
2022-09-20T11:55:59.471Z,99972.38
2022-09-20T11:58:27.271Z,99973.16
2022-09-20T12:00:59.381Z,99974.34
2022-09-20T12:03:41.379Z,99978.63
2022-09-20T12:06:22.804Z,99971.66
2022-09-20T12:08:51.388Z,99967.25
2022-09-20T12:11:30.973Z,99964.22
2022-09-20T12:14:03.998Z,99960.81
2022-09-20T12:16:39.341Z,99956.56
2022-09-20T12:19:26.923Z,99954.19
2022-09-20T12:21:59.552Z,99962.72
2022-09-20T12:24:30.283Z,99958.16
2022-09-20T12:27:02.035Z,99951.63
2022-09-20T12:30:05.077Z,99947.25
2022-09-20T12:32:54.937Z,99942.22
2022-09-20T12:35:36.912Z,99940.97
2022-09-20T12:38:33.067Z,99938.53
2022-09-20T12:41:04.952Z,99937.50
2022-09-20T12:43:34.481Z,99943.28
2022-09-20T12:46:06.352Z,99943.00
2022-09-20T12:48:37.634Z,99943.69
2022-09-20T12:51:36.197Z,99944.63
2022-09-20T12:54:07.225Z,99946.88
2022-09-20T12:56:39.200Z,99936.22
2022-09-20T12:59:27.564Z,99938.50
2022-09-20T13:01:54.030Z,99945.91
2022-09-20T13:04:42.033Z,99945.84
2022-09-20T13:07:29.855Z,99949.22
2022-09-20T13:09:57.029Z,99950.94
2022-09-20T13:12:23.767Z,99955.59
2022-09-20T13:14:50.638Z,99947.06
2022-09-20T13:17:29.996Z,99952.88
2022-09-20T13:19:57.853Z,99953.34
2022-09-20T13:22:32.859Z,99950.94
2022-09-20T13:25:02.696Z,99949.63
2022-09-20T13:27:46.893Z,99950.09
2022-09-20T13:30:31.554Z,99939.75
2022-09-20T13:33:24.448Z,99943.63
2022-09-20T13:35:58.709Z,99947.16
2022-09-20T13:38:30.589Z,99951.38
2022-09-20T13:41:09.146Z,99951.69
2022-09-20T13:43:44.293Z,99957.47
2022-09-20T13:46:12.190Z,99966.09
2022-09-20T13:48:39.151Z,99964.88
2022-09-20T13:51:19.300Z,99961.41
2022-09-20T13:53:47.408Z,99967.41
2022-09-20T13:56:29.843Z,99959.94
2022-09-20T13:58:58.919Z,99973.13
2022-09-20T14:01:31.154Z,99970.56
2022-09-20T14:04:05.052Z,99977.66
2022-09-20T14:06:32.252Z,99971.38
2022-09-20T14:09:01.834Z,99973.56
2022-09-20T14:11:33.947Z,99966.69
2022-09-20T14:14:02.954Z,99965.03
2022-09-20T14:16:39.827Z,99969.50
2022-09-20T14:19:08.151Z,99962.19
2022-09-20T14:21:37.055Z,99957.63
2022-09-20T14:24:07.287Z,99965.47
2022-09-20T14:26:36.172Z,99957.84
2022-09-20T14:29:33.508Z,99947.53
2022-09-20T14:32:07.281Z,99950.06
2022-09-20T14:34:38.861Z,99948.53
2022-09-20T14:37:18.723Z,99949.53
2022-09-20T14:39:53.075Z,99947.53
2022-09-20T14:42:41.248Z,99942.75
2022-09-20T14:45:20.822Z,99933.31
2022-09-20T14:48:11.414Z,99936.84
2022-09-20T14:50:43.582Z,99943.44
2022-09-20T14:53:10.725Z,99939.84
2022-09-20T14:55:39.057Z,99934.47
2022-09-20T14:58:15.087Z,99931.75
2022-09-20T15:00:52.257Z,99945.25
2022-09-20T15:03:34.183Z,99947.81
2022-09-20T15:06:00.839Z,99945.59
2022-09-20T15:08:27.494Z,99940.72
2022-09-20T15:10:55.180Z,99940.59
2022-09-20T15:13:21.822Z,99946.56
2022-09-20T15:15:51.013Z,99939.78
2022-09-20T15:18:21.585Z,99942.09
2022-09-20T15:20:53.131Z,99936.06
2022-09-20T15:23:20.381Z,99943.47
2022-09-20T15:25:53.179Z,99932.97
2022-09-20T15:28:20.366Z,99931.28
2022-09-20T15:30:50.303Z,99944.31
2022-09-20T15:33:18.267Z,99941.13
2022-09-20T15:35:45.842Z,99942.94
2022-09-20T15:38:13.909Z,99931.13
2022-09-20T15:40:42.088Z,99926.84
2022-09-20T15:43:11.707Z,99927.28
2022-09-20T15:45:50.868Z,99923.00
2022-09-20T15:48:25.582Z,99931.88
2022-09-20T15:51:04.085Z,99925.75
2022-09-20T15:53:32.132Z,99931.88
2022-09-20T15:56:02.488Z,99933.63
2022-09-20T15:58:35.460Z,99941.88
2022-09-20T16:01:05.183Z,99940.34
2022-09-20T16:03:32.585Z,99943.44
2022-09-20T16:06:06.873Z,99943.88
2022-09-20T16:08:39.063Z,99947.53
2022-09-20T16:11:07.359Z,99940.13
2022-09-20T16:13:33.887Z,99940.03
2022-09-20T16:16:01.254Z,99946.31
2022-09-20T16:18:48.524Z,99942.97
2022-09-20T16:21:18.200Z,99946.84
2022-09-20T16:23:53.431Z,99947.69
2022-09-20T16:26:21.482Z,99952.56
2022-09-20T16:28:49.131Z,99955.09
2022-09-20T16:31:34.943Z,99958.03
2022-09-20T16:34:18.535Z,99957.84
2022-09-20T16:36:54.035Z,99969.22
2022-09-20T16:39:26.134Z,99965.63
2022-09-20T16:41:53.507Z,99968.41
2022-09-20T16:44:20.279Z,99980.31
2022-09-20T16:46:47.364Z,99975.66
2022-09-20T16:49:14.287Z,99977.47
2022-09-20T16:51:42.557Z,99977.38
2022-09-20T16:54:14.226Z,99982.16
2022-09-20T16:56:43.385Z,99977.81
2022-09-20T16:59:10.663Z,99984.34
2022-09-20T17:01:37.868Z,99979.53
2022-09-20T17:04:07.538Z,99983.81
2022-09-20T17:06:36.518Z,99979.53
2022-09-20T17:09:07.653Z,99988.91
2022-09-20T17:11:37.186Z,99992.03
2022-09-20T17:14:05.198Z,99993.03
2022-09-20T17:16:36.587Z,100002.13
2022-09-20T17:19:09.307Z,100008.78
2022-09-20T17:21:38.236Z,100012.63
2022-09-20T17:24:08.838Z,100015.16
2022-09-20T17:26:40.844Z,100022.81
2022-09-20T17:29:10.205Z,100032.13
2022-09-20T17:31:39.373Z,100035.28
2022-09-20T17:34:09.632Z,100045.31
2022-09-20T17:36:44.360Z,100046.25
2022-09-20T17:39:12.882Z,100057.56
2022-09-20T17:41:44.793Z,100071.72
2022-09-20T17:44:12.136Z,100063.59
2022-09-20T17:46:44.108Z,100067.50
2022-09-20T17:49:15.963Z,100075.16
2022-09-20T17:51:45.666Z,100077.25
2022-09-20T17:54:13.767Z,100085.59
2022-09-20T17:56:43.363Z,100086.97
2022-09-20T17:59:11.142Z,100086.50
2022-09-20T18:01:38.562Z,100090.81
2022-09-20T18:04:06.786Z,100099.16
2022-09-20T18:06:39.449Z,100095.16
2022-09-20T18:09:20.297Z,100095.53
2022-09-20T18:11:56.451Z,100107.41
2022-09-20T18:14:25.462Z,100109.25
2022-09-20T18:16:53.681Z,100113.91
2022-09-20T18:19:22.462Z,100121.25
2022-09-20T18:21:49.137Z,100126.28
2022-09-20T18:24:15.584Z,100127.38
2022-09-20T18:26:42.155Z,100128.16
2022-09-20T18:29:14.104Z,100125.00
2022-09-20T18:31:47.348Z,100129.19
2022-09-20T18:34:33.943Z,100133.84
2022-09-20T18:37:03.623Z,100133.22
2022-09-20T18:39:32.489Z,100136.44
2022-09-20T18:41:59.974Z,100136.34
2022-09-20T18:44:28.100Z,100137.09
2022-09-20T18:46:54.984Z,100143.81
2022-09-20T18:49:22.005Z,100142.88
2022-09-20T18:51:49.335Z,100140.19
2022-09-20T18:54:16.284Z,100143.59
2022-09-20T18:56:44.904Z,100149.81
2022-09-20T18:59:21.173Z,100155.53
2022-09-20T19:01:51.090Z,100158.56
2022-09-20T19:04:49.573Z,100161.50
2022-09-20T19:07:27.019Z,100160.28
2022-09-20T19:10:03.583Z,100168.06
2022-09-20T19:12:49.681Z,100173.28
2022-09-20T19:15:30.400Z,100176.25
2022-09-20T19:18:12.137Z,100180.00
2022-09-20T19:21:26.559Z,100172.69
2022-09-20T19:24:08.305Z,100180.44
2022-09-20T19:26:38.694Z,100177.59
2022-09-20T19:29:18.176Z,100178.09
2022-09-20T19:31:47.540Z,100173.19
2022-09-20T19:34:30.963Z,100173.41
2022-09-20T19:37:20.092Z,100180.84
2022-09-20T19:40:03.948Z,100186.56
2022-09-20T19:43:10.811Z,100200.56
2022-09-20T19:46:02.406Z,100202.03
2022-09-20T19:48:34.393Z,100204.50
2022-09-20T19:51:04.418Z,100208.63
2022-09-20T19:53:31.401Z,100204.53
2022-09-20T19:56:24.804Z,100206.50
2022-09-20T19:58:53.423Z,100203.78
2022-09-20T20:01:24.891Z,100213.09
2022-09-20T20:03:53.051Z,100214.09
2022-09-20T20:06:23.418Z,100218.72
2022-09-20T20:09:06.608Z,100212.16
2022-09-20T20:12:02.559Z,100217.28
2022-09-20T20:14:49.344Z,100217.16
2022-09-20T20:17:31.028Z,100227.53
2022-09-20T20:20:24.045Z,100226.69
2022-09-20T20:23:02.753Z,100228.28
2022-09-20T20:26:02.772Z,100226.69
2022-09-20T20:28:30.323Z,100223.59
2022-09-20T20:31:00.004Z,100225.53
2022-09-20T20:33:27.017Z,100235.28
2022-09-20T20:35:55.598Z,100234.41
2022-09-20T20:38:26.373Z,100230.16
2022-09-20T20:41:01.561Z,100235.72
2022-09-20T20:43:28.094Z,100241.53
2022-09-20T20:45:54.451Z,100240.69
2022-09-20T20:48:21.536Z,100241.63
2022-09-20T20:50:47.941Z,100245.28
2022-09-20T20:53:14.561Z,100246.47
2022-09-20T20:55:41.183Z,100252.06
2022-09-20T20:58:08.558Z,100251.44
2022-09-20T21:00:34.895Z,100255.50
2022-09-20T21:03:02.691Z,100254.97
2022-09-20T21:05:29.548Z,100248.88
2022-09-20T21:07:57.746Z,100258.84
2022-09-20T21:10:24.375Z,100264.50
2022-09-20T21:12:54.631Z,100255.84
2022-09-20T21:15:21.397Z,100257.78
2022-09-20T21:17:52.388Z,100258.97
2022-09-20T21:20:19.044Z,100266.38
2022-09-20T21:22:45.624Z,100265.69
2022-09-20T21:25:12.067Z,100259.59
2022-09-20T21:27:38.714Z,100259.16
2022-09-20T21:30:05.592Z,100261.53
2022-09-20T21:32:32.072Z,100259.81
2022-09-20T21:34:59.255Z,100256.50
2022-09-20T21:37:25.784Z,100255.13
2022-09-20T21:39:53.463Z,100258.72
2022-09-20T21:42:21.014Z,100259.16
2022-09-20T21:44:47.376Z,100265.59
2022-09-20T21:47:20.026Z,100269.66
2022-09-20T21:49:47.476Z,100263.75
2022-09-20T21:52:14.438Z,100261.50
2022-09-20T21:54:40.852Z,100274.75
2022-09-20T21:57:09.635Z,100261.78
2022-09-20T21:59:36.064Z,100269.78
2022-09-20T22:02:02.644Z,100271.06
2022-09-20T22:04:29.066Z,100268.50
2022-09-20T22:06:55.738Z,100265.94
2022-09-20T22:09:23.994Z,100275.53
2022-09-20T22:11:50.580Z,100272.88
2022-09-20T22:14:19.535Z,100284.34
2022-09-20T22:16:47.837Z,100282.81
2022-09-20T22:19:16.975Z,100285.91
2022-09-20T22:21:48.343Z,100285.56
2022-09-20T22:24:15.975Z,100287.31
2022-09-20T22:26:45.738Z,100292.38
2022-09-20T22:29:12.445Z,100292.81
2022-09-20T22:31:47.536Z,100290.34
2022-09-20T22:34:17.483Z,100284.13
2022-09-20T22:36:44.489Z,100286.63
2022-09-20T22:39:12.407Z,100282.97
2022-09-20T22:41:41.110Z,100283.94
2022-09-20T22:44:07.500Z,100282.97
2022-09-20T22:46:35.032Z,100282.31
2022-09-20T22:49:01.399Z,100286.25
2022-09-20T22:51:33.783Z,100285.88
2022-09-20T22:54:04.228Z,100283.59
2022-09-20T22:56:31.330Z,100278.66
2022-09-20T22:59:08.182Z,100280.03
2022-09-20T23:01:37.377Z,100282.88
2022-09-20T23:04:09.886Z,100278.56
2022-09-20T23:06:47.665Z,100280.31
2022-09-20T23:09:16.478Z,100277.72
2022-09-20T23:11:43.532Z,100280.00
2022-09-20T23:14:12.021Z,100280.59
2022-09-20T23:16:38.883Z,100274.41
2022-09-20T23:19:06.755Z,100277.00
2022-09-20T23:21:34.445Z,100290.13
2022-09-20T23:24:02.984Z,100285.00
2022-09-20T23:26:31.843Z,100284.50
2022-09-20T23:29:12.965Z,100289.47
2022-09-20T23:31:40.973Z,100286.22
2022-09-20T23:34:08.883Z,100276.59
2022-09-20T23:36:38.095Z,100282.81
2022-09-20T23:39:06.013Z,100278.50
2022-09-20T23:41:32.753Z,100282.31
2022-09-20T23:44:00.052Z,100286.31
2022-09-20T23:46:27.101Z,100279.44
2022-09-20T23:48:54.123Z,100277.81
2022-09-20T23:51:23.338Z,100277.81
2022-09-20T23:53:51.671Z,100276.78
2022-09-20T23:56:19.777Z,100271.34
2022-09-20T23:58:46.403Z,100273.91
